sensor_id;sensor_type;location;lat;lon;timestamp;P1;durP1;ratioP1;P2;durP2;ratioP2
72728;SDS011;60843;52.062;4.508;2023-04-29T00:00:02;22.60;;;9.95;;
72728;SDS011;60843;52.062;4.508;2023-04-29T00:02:30;22.20;;;9.77;;
72728;SDS011;60843;52.062;4.508;2023-04-29T00:04:56;19.50;;;9.60;;
72728;SDS011;60843;52.062;4.508;2023-04-29T00:07:23;26.80;;;12.02;;
72728;SDS011;60843;52.062;4.508;2023-04-29T00:09:48;27.45;;;12.57;;
72728;SDS011;60843;52.062;4.508;2023-04-29T00:12:13;24.63;;;9.60;;
72728;SDS011;60843;52.062;4.508;2023-04-29T00:14:39;27.93;;;10.93;;
72728;SDS011;60843;52.062;4.508;2023-04-29T00:17:04;21.25;;;9.95;;
72728;SDS011;60843;52.062;4.508;2023-04-29T00:19:29;23.80;;;10.97;;
72728;SDS011;60843;52.062;4.508;2023-04-29T00:21:55;22.25;;;8.52;;
72728;SDS011;60843;52.062;4.508;2023-04-29T00:24:20;22.00;;;11.70;;
72728;SDS011;60843;52.062;4.508;2023-04-29T00:26:46;30.57;;;12.17;;
72728;SDS011;60843;52.062;4.508;2023-04-29T00:29:11;21.80;;;9.27;;
72728;SDS011;60843;52.062;4.508;2023-04-29T00:31:36;17.37;;;9.27;;
72728;SDS011;60843;52.062;4.508;2023-04-29T00:34:02;22.17;;;12.60;;
72728;SDS011;60843;52.062;4.508;2023-04-29T00:36:27;14.18;;;8.13;;
72728;SDS011;60843;52.062;4.508;2023-04-29T00:38:53;28.83;;;12.18;;
72728;SDS011;60843;52.062;4.508;2023-04-29T00:41:19;16.33;;;8.48;;
72728;SDS011;60843;52.062;4.508;2023-04-29T00:43:45;17.58;;;10.23;;
72728;SDS011;60843;52.062;4.508;2023-04-29T00:46:10;25.13;;;12.00;;
72728;SDS011;60843;52.062;4.508;2023-04-29T00:48:35;26.63;;;12.60;;
72728;SDS011;60843;52.062;4.508;2023-04-29T00:51:01;34.03;;;13.90;;
72728;SDS011;60843;52.062;4.508;2023-04-29T00:53:27;18.77;;;8.85;;
72728;SDS011;60843;52.062;4.508;2023-04-29T00:55:53;19.35;;;9.25;;
72728;SDS011;60843;52.062;4.508;2023-04-29T00:58:19;24.63;;;11.73;;
72728;SDS011;60843;52.062;4.508;2023-04-29T01:00:46;13.65;;;6.63;;
72728;SDS011;60843;52.062;4.508;2023-04-29T01:03:12;25.52;;;12.07;;
72728;SDS011;60843;52.062;4.508;2023-04-29T01:05:37;22.73;;;11.32;;
72728;SDS011;60843;52.062;4.508;2023-04-29T01:10:28;23.67;;;12.03;;
72728;SDS011;60843;52.062;4.508;2023-04-29T01:13:02;19.75;;;9.10;;
72728;SDS011;60843;52.062;4.508;2023-04-29T01:15:43;18.60;;;8.40;;
72728;SDS011;60843;52.062;4.508;2023-04-29T01:18:19;21.45;;;9.48;;
72728;SDS011;60843;52.062;4.508;2023-04-29T01:20:48;27.10;;;12.68;;
72728;SDS011;60843;52.062;4.508;2023-04-29T01:23:14;28.15;;;12.18;;
72728;SDS011;60843;52.062;4.508;2023-04-29T01:25:39;24.03;;;11.87;;
72728;SDS011;60843;52.062;4.508;2023-04-29T01:28:26;31.90;;;13.37;;
72728;SDS011;60843;52.062;4.508;2023-04-29T01:31:10;25.25;;;12.52;;
72728;SDS011;60843;52.062;4.508;2023-04-29T01:33:43;24.83;;;12.57;;
72728;SDS011;60843;52.062;4.508;2023-04-29T01:36:30;22.95;;;9.15;;
72728;SDS011;60843;52.062;4.508;2023-04-29T01:39:14;26.02;;;12.45;;
72728;SDS011;60843;52.062;4.508;2023-04-29T01:41:50;28.15;;;12.80;;
72728;SDS011;60843;52.062;4.508;2023-04-29T01:46:51;28.90;;;12.98;;
72728;SDS011;60843;52.062;4.508;2023-04-29T01:49:27;25.15;;;11.75;;
72728;SDS011;60843;52.062;4.508;2023-04-29T01:51:52;23.63;;;12.60;;
72728;SDS011;60843;52.062;4.508;2023-04-29T01:54:18;33.33;;;13.75;;
72728;SDS011;60843;52.062;4.508;2023-04-29T01:56:43;21.17;;;10.70;;
72728;SDS011;60843;52.062;4.508;2023-04-29T01:59:09;25.23;;;12.20;;
72728;SDS011;60843;52.062;4.508;2023-04-29T02:01:35;22.13;;;9.05;;
72728;SDS011;60843;52.062;4.508;2023-04-29T02:04:00;20.40;;;10.48;;
72728;SDS011;60843;52.062;4.508;2023-04-29T02:06:26;24.08;;;11.18;;
72728;SDS011;60843;52.062;4.508;2023-04-29T02:08:52;25.63;;;11.75;;
72728;SDS011;60843;52.062;4.508;2023-04-29T02:11:17;26.65;;;11.52;;
72728;SDS011;60843;52.062;4.508;2023-04-29T02:13:42;21.10;;;11.17;;
72728;SDS011;60843;52.062;4.508;2023-04-29T02:16:11;25.13;;;11.43;;
72728;SDS011;60843;52.062;4.508;2023-04-29T02:18:37;20.77;;;10.30;;
72728;SDS011;60843;52.062;4.508;2023-04-29T02:21:04;25.17;;;9.65;;
72728;SDS011;60843;52.062;4.508;2023-04-29T02:23:29;22.63;;;9.30;;
72728;SDS011;60843;52.062;4.508;2023-04-29T02:25:55;22.27;;;8.32;;
72728;SDS011;60843;52.062;4.508;2023-04-29T02:28:20;22.07;;;9.50;;
72728;SDS011;60843;52.062;4.508;2023-04-29T02:30:47;17.35;;;8.65;;
72728;SDS011;60843;52.062;4.508;2023-04-29T02:33:13;16.85;;;9.43;;
72728;SDS011;60843;52.062;4.508;2023-04-29T02:35:38;23.03;;;10.33;;
72728;SDS011;60843;52.062;4.508;2023-04-29T02:38:03;22.30;;;9.47;;
72728;SDS011;60843;52.062;4.508;2023-04-29T02:40:29;18.27;;;9.20;;
72728;SDS011;60843;52.062;4.508;2023-04-29T02:42:54;25.27;;;10.05;;
72728;SDS011;60843;52.062;4.508;2023-04-29T02:45:20;18.00;;;9.02;;
72728;SDS011;60843;52.062;4.508;2023-04-29T02:47:46;17.85;;;8.27;;
72728;SDS011;60843;52.062;4.508;2023-04-29T02:50:11;13.15;;;5.25;;
72728;SDS011;60843;52.062;4.508;2023-04-29T02:52:37;19.20;;;8.88;;
72728;SDS011;60843;52.062;4.508;2023-04-29T02:55:02;17.30;;;8.45;;
72728;SDS011;60843;52.062;4.508;2023-04-29T02:57:29;14.27;;;7.20;;
72728;SDS011;60843;52.062;4.508;2023-04-29T02:59:54;15.35;;;7.15;;
72728;SDS011;60843;52.062;4.508;2023-04-29T03:02:20;16.30;;;9.27;;
72728;SDS011;60843;52.062;4.508;2023-04-29T03:04:52;15.13;;;8.07;;
72728;SDS011;60843;52.062;4.508;2023-04-29T03:07:17;17.35;;;8.63;;
72728;SDS011;60843;52.062;4.508;2023-04-29T03:09:43;16.85;;;8.55;;
72728;SDS011;60843;52.062;4.508;2023-04-29T03:12:08;19.80;;;8.70;;
72728;SDS011;60843;52.062;4.508;2023-04-29T03:14:34;16.00;;;7.72;;
72728;SDS011;60843;52.062;4.508;2023-04-29T03:17:00;20.60;;;8.93;;
72728;SDS011;60843;52.062;4.508;2023-04-29T03:19:29;20.30;;;9.13;;
72728;SDS011;60843;52.062;4.508;2023-04-29T03:21:55;18.42;;;8.93;;
72728;SDS011;60843;52.062;4.508;2023-04-29T03:24:20;18.50;;;9.27;;
72728;SDS011;60843;52.062;4.508;2023-04-29T03:26:46;20.70;;;8.63;;
72728;SDS011;60843;52.062;4.508;2023-04-29T03:29:11;18.30;;;8.65;;
72728;SDS011;60843;52.062;4.508;2023-04-29T03:31:37;14.70;;;8.55;;
72728;SDS011;60843;52.062;4.508;2023-04-29T03:34:02;19.73;;;9.07;;
72728;SDS011;60843;52.062;4.508;2023-04-29T03:36:28;16.45;;;8.75;;
72728;SDS011;60843;52.062;4.508;2023-04-29T03:38:53;23.50;;;9.00;;
72728;SDS011;60843;52.062;4.508;2023-04-29T03:41:18;16.23;;;9.00;;
72728;SDS011;60843;52.062;4.508;2023-04-29T03:43:44;17.75;;;8.38;;
72728;SDS011;60843;52.062;4.508;2023-04-29T03:46:10;26.67;;;9.40;;
72728;SDS011;60843;52.062;4.508;2023-04-29T03:48:35;17.67;;;8.30;;
72728;SDS011;60843;52.062;4.508;2023-04-29T03:51:01;19.42;;;8.27;;
72728;SDS011;60843;52.062;4.508;2023-04-29T03:53:27;18.92;;;8.98;;
72728;SDS011;60843;52.062;4.508;2023-04-29T03:55:52;19.87;;;9.10;;
72728;SDS011;60843;52.062;4.508;2023-04-29T03:58:18;21.83;;;9.80;;
72728;SDS011;60843;52.062;4.508;2023-04-29T04:00:43;15.40;;;6.82;;
72728;SDS011;60843;52.062;4.508;2023-04-29T04:03:09;19.30;;;8.30;;
72728;SDS011;60843;52.062;4.508;2023-04-29T04:05:35;22.13;;;9.25;;
72728;SDS011;60843;52.062;4.508;2023-04-29T04:08:00;24.60;;;9.73;;
72728;SDS011;60843;52.062;4.508;2023-04-29T04:10:26;11.00;;;5.70;;
72728;SDS011;60843;52.062;4.508;2023-04-29T04:12:52;17.88;;;8.55;;
72728;SDS011;60843;52.062;4.508;2023-04-29T04:15:17;18.07;;;9.10;;
72728;SDS011;60843;52.062;4.508;2023-04-29T04:17:43;16.85;;;7.10;;
72728;SDS011;60843;52.062;4.508;2023-04-29T04:20:10;17.00;;;8.40;;
72728;SDS011;60843;52.062;4.508;2023-04-29T04:22:37;21.70;;;9.13;;
72728;SDS011;60843;52.062;4.508;2023-04-29T04:25:02;18.77;;;8.00;;
72728;SDS011;60843;52.062;4.508;2023-04-29T04:27:28;22.00;;;8.98;;
72728;SDS011;60843;52.062;4.508;2023-04-29T04:29:54;25.15;;;9.57;;
72728;SDS011;60843;52.062;4.508;2023-04-29T04:32:22;20.85;;;9.63;;
72728;SDS011;60843;52.062;4.508;2023-04-29T04:37:13;23.67;;;8.93;;
72728;SDS011;60843;52.062;4.508;2023-04-29T04:39:39;24.95;;;9.38;;
72728;SDS011;60843;52.062;4.508;2023-04-29T04:42:04;23.50;;;9.48;;
72728;SDS011;60843;52.062;4.508;2023-04-29T04:44:29;18.63;;;8.73;;
72728;SDS011;60843;52.062;4.508;2023-04-29T04:46:56;23.05;;;8.70;;
72728;SDS011;60843;52.062;4.508;2023-04-29T04:49:22;21.42;;;9.90;;
72728;SDS011;60843;52.062;4.508;2023-04-29T04:51:49;18.95;;;8.50;;
72728;SDS011;60843;52.062;4.508;2023-04-29T04:54:15;24.77;;;9.18;;
72728;SDS011;60843;52.062;4.508;2023-04-29T04:56:41;20.00;;;8.85;;
72728;SDS011;60843;52.062;4.508;2023-04-29T04:59:06;25.83;;;9.80;;
72728;SDS011;60843;52.062;4.508;2023-04-29T05:01:32;21.60;;;9.40;;
72728;SDS011;60843;52.062;4.508;2023-04-29T05:03:58;23.92;;;10.05;;
72728;SDS011;60843;52.062;4.508;2023-04-29T05:06:24;26.65;;;10.25;;
72728;SDS011;60843;52.062;4.508;2023-04-29T05:08:50;30.05;;;10.90;;
72728;SDS011;60843;52.062;4.508;2023-04-29T05:11:19;26.55;;;11.05;;
72728;SDS011;60843;52.062;4.508;2023-04-29T05:13:46;29.50;;;10.70;;
72728;SDS011;60843;52.062;4.508;2023-04-29T05:16:11;22.77;;;9.65;;
72728;SDS011;60843;52.062;4.508;2023-04-29T05:18:37;28.90;;;10.88;;
72728;SDS011;60843;52.062;4.508;2023-04-29T05:21:02;20.23;;;9.07;;
72728;SDS011;60843;52.062;4.508;2023-04-29T05:23:28;23.52;;;10.63;;
72728;SDS011;60843;52.062;4.508;2023-04-29T05:25:54;27.02;;;10.82;;
72728;SDS011;60843;52.062;4.508;2023-04-29T05:28:20;45.83;;;18.58;;
72728;SDS011;60843;52.062;4.508;2023-04-29T05:30:45;26.75;;;11.75;;
72728;SDS011;60843;52.062;4.508;2023-04-29T05:33:11;29.33;;;11.25;;
72728;SDS011;60843;52.062;4.508;2023-04-29T05:35:37;23.90;;;10.63;;
72728;SDS011;60843;52.062;4.508;2023-04-29T05:38:02;18.97;;;8.47;;
72728;SDS011;60843;52.062;4.508;2023-04-29T05:40:28;27.52;;;10.75;;
72728;SDS011;60843;52.062;4.508;2023-04-29T05:42:53;39.95;;;11.40;;
72728;SDS011;60843;52.062;4.508;2023-04-29T05:45:19;14.43;;;5.95;;
72728;SDS011;60843;52.062;4.508;2023-04-29T05:47:44;24.02;;;11.50;;
72728;SDS011;60843;52.062;4.508;2023-04-29T05:50:11;22.67;;;10.20;;
72728;SDS011;60843;52.062;4.508;2023-04-29T05:52:37;20.38;;;9.13;;
72728;SDS011;60843;52.062;4.508;2023-04-29T05:55:03;24.85;;;10.15;;
72728;SDS011;60843;52.062;4.508;2023-04-29T05:57:28;18.23;;;8.27;;
72728;SDS011;60843;52.062;4.508;2023-04-29T05:59:54;22.30;;;10.68;;
72728;SDS011;60843;52.062;4.508;2023-04-29T06:02:19;16.48;;;8.07;;
72728;SDS011;60843;52.062;4.508;2023-04-29T06:04:45;30.73;;;12.95;;
72728;SDS011;60843;52.062;4.508;2023-04-29T06:07:11;20.45;;;9.30;;
72728;SDS011;60843;52.062;4.508;2023-04-29T06:09:37;18.55;;;8.27;;
72728;SDS011;60843;52.062;4.508;2023-04-29T06:12:03;15.07;;;7.82;;
72728;SDS011;60843;52.062;4.508;2023-04-29T06:14:29;15.75;;;8.13;;
72728;SDS011;60843;52.062;4.508;2023-04-29T06:16:54;15.80;;;8.40;;
72728;SDS011;60843;52.062;4.508;2023-04-29T06:19:20;12.55;;;7.65;;
72728;SDS011;60843;52.062;4.508;2023-04-29T06:21:45;14.23;;;7.03;;
72728;SDS011;60843;52.062;4.508;2023-04-29T06:24:10;16.73;;;7.57;;
72728;SDS011;60843;52.062;4.508;2023-04-29T06:26:36;17.35;;;6.63;;
72728;SDS011;60843;52.062;4.508;2023-04-29T06:29:01;12.77;;;5.93;;
72728;SDS011;60843;52.062;4.508;2023-04-29T06:31:27;9.75;;;4.60;;
72728;SDS011;60843;52.062;4.508;2023-04-29T06:33:52;10.97;;;5.60;;
72728;SDS011;60843;52.062;4.508;2023-04-29T06:36:23;14.45;;;7.07;;
72728;SDS011;60843;52.062;4.508;2023-04-29T06:38:49;13.55;;;5.95;;
72728;SDS011;60843;52.062;4.508;2023-04-29T06:41:14;14.35;;;6.10;;
72728;SDS011;60843;52.062;4.508;2023-04-29T06:43:40;15.07;;;6.37;;
72728;SDS011;60843;52.062;4.508;2023-04-29T06:46:07;12.07;;;6.07;;
72728;SDS011;60843;52.062;4.508;2023-04-29T06:48:32;13.77;;;6.18;;
72728;SDS011;60843;52.062;4.508;2023-04-29T06:50:58;11.67;;;6.33;;
72728;SDS011;60843;52.062;4.508;2023-04-29T06:53:24;14.57;;;6.00;;
72728;SDS011;60843;52.062;4.508;2023-04-29T06:55:49;14.95;;;6.28;;
72728;SDS011;60843;52.062;4.508;2023-04-29T06:58:15;12.98;;;5.00;;
72728;SDS011;60843;52.062;4.508;2023-04-29T07:00:44;15.68;;;5.78;;
72728;SDS011;60843;52.062;4.508;2023-04-29T07:05:39;11.00;;;5.53;;
72728;SDS011;60843;52.062;4.508;2023-04-29T07:08:06;15.13;;;6.15;;
72728;SDS011;60843;52.062;4.508;2023-04-29T07:10:31;8.68;;;4.35;;
72728;SDS011;60843;52.062;4.508;2023-04-29T07:12:57;12.27;;;5.65;;
72728;SDS011;60843;52.062;4.508;2023-04-29T07:15:24;10.95;;;4.78;;
72728;SDS011;60843;52.062;4.508;2023-04-29T07:17:53;8.38;;;4.00;;
72728;SDS011;60843;52.062;4.508;2023-04-29T07:20:19;11.38;;;4.45;;
72728;SDS011;60843;52.062;4.508;2023-04-29T07:22:44;8.52;;;4.03;;
72728;SDS011;60843;52.062;4.508;2023-04-29T07:25:09;11.03;;;4.60;;
72728;SDS011;60843;52.062;4.508;2023-04-29T07:27:35;9.88;;;4.63;;
72728;SDS011;60843;52.062;4.508;2023-04-29T07:30:01;6.53;;;3.55;;
72728;SDS011;60843;52.062;4.508;2023-04-29T07:32:26;9.38;;;4.18;;
72728;SDS011;60843;52.062;4.508;2023-04-29T07:34:52;6.93;;;3.75;;
72728;SDS011;60843;52.062;4.508;2023-04-29T07:37:18;7.18;;;4.10;;
72728;SDS011;60843;52.062;4.508;2023-04-29T07:39:43;12.18;;;4.22;;
72728;SDS011;60843;52.062;4.508;2023-04-29T07:42:09;12.10;;;4.40;;
72728;SDS011;60843;52.062;4.508;2023-04-29T07:44:35;13.27;;;4.50;;
72728;SDS011;60843;52.062;4.508;2023-04-29T07:47:00;10.00;;;4.22;;
72728;SDS011;60843;52.062;4.508;2023-04-29T07:49:25;7.95;;;3.58;;
72728;SDS011;60843;52.062;4.508;2023-04-29T07:51:51;10.83;;;4.10;;
72728;SDS011;60843;52.062;4.508;2023-04-29T07:54:16;7.85;;;3.58;;
72728;SDS011;60843;52.062;4.508;2023-04-29T07:56:43;10.65;;;4.15;;
72728;SDS011;60843;52.062;4.508;2023-04-29T07:59:08;9.83;;;3.90;;
72728;SDS011;60843;52.062;4.508;2023-04-29T08:01:34;10.77;;;4.67;;
72728;SDS011;60843;52.062;4.508;2023-04-29T08:03:59;11.40;;;3.87;;
72728;SDS011;60843;52.062;4.508;2023-04-29T08:06:24;11.48;;;4.53;;
72728;SDS011;60843;52.062;4.508;2023-04-29T08:08:50;10.10;;;4.13;;
72728;SDS011;60843;52.062;4.508;2023-04-29T08:11:19;10.73;;;4.40;;
72728;SDS011;60843;52.062;4.508;2023-04-29T08:13:44;9.10;;;4.18;;
72728;SDS011;60843;52.062;4.508;2023-04-29T08:16:11;5.78;;;3.35;;
72728;SDS011;60843;52.062;4.508;2023-04-29T08:18:37;12.23;;;4.13;;
72728;SDS011;60843;52.062;4.508;2023-04-29T08:21:02;5.82;;;2.67;;
72728;SDS011;60843;52.062;4.508;2023-04-29T08:23:28;8.00;;;3.53;;
72728;SDS011;60843;52.062;4.508;2023-04-29T08:25:53;7.57;;;3.17;;
72728;SDS011;60843;52.062;4.508;2023-04-29T08:28:22;6.03;;;3.03;;
72728;SDS011;60843;52.062;4.508;2023-04-29T08:30:47;6.03;;;3.67;;
72728;SDS011;60843;52.062;4.508;2023-04-29T08:33:13;5.35;;;2.67;;
72728;SDS011;60843;52.062;4.508;2023-04-29T08:35:39;8.48;;;3.90;;
72728;SDS011;60843;52.062;4.508;2023-04-29T08:38:06;10.13;;;3.40;;
72728;SDS011;60843;52.062;4.508;2023-04-29T08:40:33;10.98;;;3.92;;
72728;SDS011;60843;52.062;4.508;2023-04-29T08:43:11;8.40;;;3.78;;
72728;SDS011;60843;52.062;4.508;2023-04-29T08:45:37;8.05;;;4.40;;
72728;SDS011;60843;52.062;4.508;2023-04-29T08:48:03;9.77;;;3.88;;
72728;SDS011;60843;52.062;4.508;2023-04-29T08:50:29;8.35;;;4.45;;
72728;SDS011;60843;52.062;4.508;2023-04-29T08:52:55;4.72;;;2.22;;
72728;SDS011;60843;52.062;4.508;2023-04-29T08:55:21;7.80;;;3.78;;
72728;SDS011;60843;52.062;4.508;2023-04-29T08:57:48;8.15;;;4.00;;
72728;SDS011;60843;52.062;4.508;2023-04-29T09:00:14;13.68;;;3.58;;
72728;SDS011;60843;52.062;4.508;2023-04-29T09:02:44;8.63;;;4.43;;
72728;SDS011;60843;52.062;4.508;2023-04-29T09:05:11;8.02;;;3.67;;
72728;SDS011;60843;52.062;4.508;2023-04-29T09:07:37;5.50;;;2.72;;
72728;SDS011;60843;52.062;4.508;2023-04-29T09:10:03;12.30;;;4.72;;
72728;SDS011;60843;52.062;4.508;2023-04-29T09:12:29;9.60;;;3.65;;
72728;SDS011;60843;52.062;4.508;2023-04-29T09:14:55;8.95;;;4.20;;
72728;SDS011;60843;52.062;4.508;2023-04-29T09:17:37;10.00;;;3.40;;
72728;SDS011;60843;52.062;4.508;2023-04-29T09:22:51;8.98;;;4.40;;
72728;SDS011;60843;52.062;4.508;2023-04-29T09:25:17;8.02;;;4.00;;
72728;SDS011;60843;52.062;4.508;2023-04-29T09:27:43;7.90;;;4.10;;
72728;SDS011;60843;52.062;4.508;2023-04-29T09:30:08;14.73;;;4.63;;
72728;SDS011;60843;52.062;4.508;2023-04-29T09:32:34;11.60;;;4.47;;
72728;SDS011;60843;52.062;4.508;2023-04-29T09:37:44;10.43;;;4.20;;
72728;SDS011;60843;52.062;4.508;2023-04-29T09:40:26;7.97;;;4.03;;
72728;SDS011;60843;52.062;4.508;2023-04-29T09:42:54;9.90;;;4.05;;
72728;SDS011;60843;52.062;4.508;2023-04-29T09:45:36;9.65;;;4.63;;
72728;SDS011;60843;52.062;4.508;2023-04-29T09:48:02;5.85;;;2.97;;
72728;SDS011;60843;52.062;4.508;2023-04-29T09:50:29;13.57;;;4.35;;
72728;SDS011;60843;52.062;4.508;2023-04-29T09:53:02;11.63;;;4.45;;
72728;SDS011;60843;52.062;4.508;2023-04-29T09:55:28;9.30;;;4.47;;
72728;SDS011;60843;52.062;4.508;2023-04-29T09:57:54;6.53;;;4.13;;
72728;SDS011;60843;52.062;4.508;2023-04-29T10:00:19;7.53;;;4.38;;
72728;SDS011;60843;52.062;4.508;2023-04-29T10:02:45;11.35;;;3.65;;
72728;SDS011;60843;52.062;4.508;2023-04-29T10:05:12;14.95;;;3.85;;
72728;SDS011;60843;52.062;4.508;2023-04-29T10:07:38;11.60;;;4.30;;
72728;SDS011;60843;52.062;4.508;2023-04-29T10:10:04;9.27;;;4.00;;
72728;SDS011;60843;52.062;4.508;2023-04-29T10:12:31;9.27;;;3.90;;
72728;SDS011;60843;52.062;4.508;2023-04-29T10:17:47;8.57;;;4.07;;
72728;SDS011;60843;52.062;4.508;2023-04-29T10:20:14;7.30;;;4.43;;
72728;SDS011;60843;52.062;4.508;2023-04-29T10:22:48;7.78;;;4.15;;
72728;SDS011;60843;52.062;4.508;2023-04-29T10:25:15;10.73;;;4.55;;
72728;SDS011;60843;52.062;4.508;2023-04-29T10:27:42;7.90;;;3.50;;
72728;SDS011;60843;52.062;4.508;2023-04-29T10:30:11;9.75;;;4.10;;
72728;SDS011;60843;52.062;4.508;2023-04-29T10:32:39;17.88;;;4.22;;
72728;SDS011;60843;52.062;4.508;2023-04-29T10:35:06;11.50;;;4.03;;
72728;SDS011;60843;52.062;4.508;2023-04-29T10:42:36;8.52;;;3.80;;
72728;SDS011;60843;52.062;4.508;2023-04-29T10:50:32;8.95;;;3.83;;
72728;SDS011;60843;52.062;4.508;2023-04-29T10:53:01;8.75;;;4.20;;
72728;SDS011;60843;52.062;4.508;2023-04-29T10:55:28;8.65;;;4.18;;
72728;SDS011;60843;52.062;4.508;2023-04-29T10:57:53;8.23;;;3.50;;
72728;SDS011;60843;52.062;4.508;2023-04-29T11:00:29;6.30;;;3.80;;
72728;SDS011;60843;52.062;4.508;2023-04-29T11:03:01;10.30;;;4.22;;
72728;SDS011;60843;52.062;4.508;2023-04-29T11:05:30;6.88;;;3.60;;
72728;SDS011;60843;52.062;4.508;2023-04-29T11:08:09;10.13;;;4.07;;
72728;SDS011;60843;52.062;4.508;2023-04-29T11:10:49;8.15;;;3.72;;
72728;SDS011;60843;52.062;4.508;2023-04-29T11:13:26;8.30;;;3.85;;
72728;SDS011;60843;52.062;4.508;2023-04-29T11:16:02;8.00;;;3.55;;
72728;SDS011;60843;52.062;4.508;2023-04-29T11:18:29;5.70;;;3.03;;
72728;SDS011;60843;52.062;4.508;2023-04-29T11:23:36;5.60;;;3.55;;
72728;SDS011;60843;52.062;4.508;2023-04-29T11:26:02;7.40;;;3.50;;
72728;SDS011;60843;52.062;4.508;2023-04-29T11:28:28;7.75;;;3.50;;
72728;SDS011;60843;52.062;4.508;2023-04-29T11:30:55;5.57;;;2.53;;
72728;SDS011;60843;52.062;4.508;2023-04-29T11:33:22;8.75;;;3.47;;
72728;SDS011;60843;52.062;4.508;2023-04-29T11:35:53;8.20;;;3.50;;
72728;SDS011;60843;52.062;4.508;2023-04-29T11:38:25;4.82;;;2.85;;
72728;SDS011;60843;52.062;4.508;2023-04-29T11:40:54;9.48;;;4.05;;
72728;SDS011;60843;52.062;4.508;2023-04-29T11:43:21;11.10;;;4.18;;
72728;SDS011;60843;52.062;4.508;2023-04-29T11:45:47;6.20;;;3.15;;
72728;SDS011;60843;52.062;4.508;2023-04-29T11:48:20;6.05;;;3.20;;
72728;SDS011;60843;52.062;4.508;2023-04-29T11:50:46;6.22;;;2.95;;
72728;SDS011;60843;52.062;4.508;2023-04-29T11:53:13;10.90;;;4.03;;
72728;SDS011;60843;52.062;4.508;2023-04-29T11:55:42;6.57;;;3.15;;
72728;SDS011;60843;52.062;4.508;2023-04-29T11:58:08;6.70;;;3.20;;
72728;SDS011;60843;52.062;4.508;2023-04-29T12:00:34;8.25;;;3.28;;
72728;SDS011;60843;52.062;4.508;2023-04-29T12:03:00;12.43;;;4.38;;
72728;SDS011;60843;52.062;4.508;2023-04-29T12:05:28;7.63;;;3.67;;
72728;SDS011;60843;52.062;4.508;2023-04-29T12:07:54;7.00;;;2.85;;
72728;SDS011;60843;52.062;4.508;2023-04-29T12:10:19;9.40;;;4.10;;
72728;SDS011;60843;52.062;4.508;2023-04-29T12:12:45;11.38;;;3.40;;
72728;SDS011;60843;52.062;4.508;2023-04-29T12:15:11;10.95;;;3.83;;
72728;SDS011;60843;52.062;4.508;2023-04-29T12:17:37;5.55;;;3.25;;
72728;SDS011;60843;52.062;4.508;2023-04-29T12:20:03;8.77;;;3.67;;
72728;SDS011;60843;52.062;4.508;2023-04-29T12:22:33;8.93;;;3.30;;
72728;SDS011;60843;52.062;4.508;2023-04-29T12:24:58;10.93;;;4.03;;
72728;SDS011;60843;52.062;4.508;2023-04-29T12:27:24;7.57;;;4.07;;
72728;SDS011;60843;52.062;4.508;2023-04-29T12:29:51;10.68;;;4.45;;
72728;SDS011;60843;52.062;4.508;2023-04-29T12:32:16;10.52;;;4.32;;
72728;SDS011;60843;52.062;4.508;2023-04-29T12:34:44;9.45;;;3.92;;
72728;SDS011;60843;52.062;4.508;2023-04-29T12:37:11;5.07;;;2.95;;
72728;SDS011;60843;52.062;4.508;2023-04-29T12:39:38;11.57;;;4.00;;
72728;SDS011;60843;52.062;4.508;2023-04-29T12:42:03;4.50;;;2.63;;
72728;SDS011;60843;52.062;4.508;2023-04-29T12:44:35;11.83;;;3.90;;
72728;SDS011;60843;52.062;4.508;2023-04-29T12:47:08;11.00;;;3.47;;
72728;SDS011;60843;52.062;4.508;2023-04-29T12:49:34;5.25;;;2.90;;
72728;SDS011;60843;52.062;4.508;2023-04-29T12:52:01;10.77;;;4.15;;
72728;SDS011;60843;52.062;4.508;2023-04-29T12:54:26;6.53;;;3.72;;
72728;SDS011;60843;52.062;4.508;2023-04-29T12:56:52;10.13;;;4.17;;
72728;SDS011;60843;52.062;4.508;2023-04-29T12:59:17;11.60;;;4.43;;
72728;SDS011;60843;52.062;4.508;2023-04-29T13:01:43;11.37;;;4.33;;
72728;SDS011;60843;52.062;4.508;2023-04-29T13:04:08;3.73;;;1.70;;
72728;SDS011;60843;52.062;4.508;2023-04-29T13:06:35;8.93;;;4.35;;
72728;SDS011;60843;52.062;4.508;2023-04-29T13:09:06;10.07;;;3.15;;
72728;SDS011;60843;52.062;4.508;2023-04-29T13:11:34;6.43;;;2.95;;
72728;SDS011;60843;52.062;4.508;2023-04-29T13:13:59;7.93;;;3.10;;
72728;SDS011;60843;52.062;4.508;2023-04-29T13:16:25;9.23;;;4.30;;
72728;SDS011;60843;52.062;4.508;2023-04-29T13:18:50;9.60;;;3.25;;
72728;SDS011;60843;52.062;4.508;2023-04-29T13:21:15;7.90;;;3.20;;
72728;SDS011;60843;52.062;4.508;2023-04-29T13:23:41;10.03;;;3.93;;
72728;SDS011;60843;52.062;4.508;2023-04-29T13:26:06;11.93;;;4.10;;
72728;SDS011;60843;52.062;4.508;2023-04-29T13:28:33;9.68;;;3.13;;
72728;SDS011;60843;52.062;4.508;2023-04-29T13:30:58;8.45;;;3.90;;
72728;SDS011;60843;52.062;4.508;2023-04-29T13:33:24;7.90;;;3.33;;
72728;SDS011;60843;52.062;4.508;2023-04-29T13:35:49;6.37;;;3.50;;
72728;SDS011;60843;52.062;4.508;2023-04-29T13:38:15;12.10;;;3.83;;
72728;SDS011;60843;52.062;4.508;2023-04-29T13:40:43;4.00;;;2.22;;
72728;SDS011;60843;52.062;4.508;2023-04-29T13:43:08;8.95;;;3.80;;
72728;SDS011;60843;52.062;4.508;2023-04-29T13:45:34;5.70;;;2.85;;
72728;SDS011;60843;52.062;4.508;2023-04-29T13:48:00;7.55;;;3.08;;
72728;SDS011;60843;52.062;4.508;2023-04-29T13:50:25;5.68;;;3.20;;
72728;SDS011;60843;52.062;4.508;2023-04-29T13:52:51;7.13;;;3.23;;
72728;SDS011;60843;52.062;4.508;2023-04-29T13:55:16;6.93;;;3.10;;
72728;SDS011;60843;52.062;4.508;2023-04-29T13:57:42;5.07;;;2.50;;
72728;SDS011;60843;52.062;4.508;2023-04-29T14:00:07;6.53;;;2.83;;
72728;SDS011;60843;52.062;4.508;2023-04-29T14:02:33;10.48;;;3.50;;
72728;SDS011;60843;52.062;4.508;2023-04-29T14:04:58;7.70;;;3.03;;
72728;SDS011;60843;52.062;4.508;2023-04-29T14:07:24;7.27;;;2.73;;
72728;SDS011;60843;52.062;4.508;2023-04-29T14:09:49;6.18;;;2.25;;
72728;SDS011;60843;52.062;4.508;2023-04-29T14:12:15;4.10;;;1.50;;
72728;SDS011;60843;52.062;4.508;2023-04-29T14:14:41;5.90;;;2.57;;
72728;SDS011;60843;52.062;4.508;2023-04-29T14:17:06;3.87;;;1.63;;
72728;SDS011;60843;52.062;4.508;2023-04-29T14:19:31;3.10;;;1.70;;
72728;SDS011;60843;52.062;4.508;2023-04-29T14:21:57;6.75;;;2.67;;
72728;SDS011;60843;52.062;4.508;2023-04-29T14:24:22;5.83;;;2.03;;
72728;SDS011;60843;52.062;4.508;2023-04-29T14:26:47;5.37;;;2.23;;
72728;SDS011;60843;52.062;4.508;2023-04-29T14:29:13;4.80;;;2.47;;
72728;SDS011;60843;52.062;4.508;2023-04-29T14:31:38;4.53;;;1.83;;
72728;SDS011;60843;52.062;4.508;2023-04-29T14:34:04;7.23;;;2.60;;
72728;SDS011;60843;52.062;4.508;2023-04-29T14:36:30;5.32;;;2.42;;
72728;SDS011;60843;52.062;4.508;2023-04-29T14:38:58;9.70;;;3.20;;
72728;SDS011;60843;52.062;4.508;2023-04-29T14:41:24;7.90;;;3.50;;
72728;SDS011;60843;52.062;4.508;2023-04-29T14:43:50;15.30;;;3.60;;
72728;SDS011;60843;52.062;4.508;2023-04-29T14:46:16;6.32;;;2.80;;
72728;SDS011;60843;52.062;4.508;2023-04-29T14:48:41;10.40;;;3.17;;
72728;SDS011;60843;52.062;4.508;2023-04-29T14:51:07;8.73;;;3.10;;
72728;SDS011;60843;52.062;4.508;2023-04-29T14:53:33;5.45;;;2.90;;
72728;SDS011;60843;52.062;4.508;2023-04-29T14:55:58;6.88;;;2.65;;
72728;SDS011;60843;52.062;4.508;2023-04-29T14:58:23;8.88;;;3.30;;
72728;SDS011;60843;52.062;4.508;2023-04-29T15:00:49;5.70;;;2.87;;
72728;SDS011;60843;52.062;4.508;2023-04-29T15:03:15;6.90;;;2.60;;
72728;SDS011;60843;52.062;4.508;2023-04-29T15:05:40;5.15;;;1.73;;